Latest Weather Observations for Melbourne Airport

IDV60901

Issued at 9:11 pm EDT Sunday 25 January 2015 (issued every 10 minutes, with the page automatically refreshed every 10 minutes)

About weather observations | Map of Melbourne area stations | Latest observations for Melbourne area | Other Formats
Station Details ID: 086282 Name: MELBOURNE AIRPORT Lat: -37.67 Lon: 144.83 Height: 113.4 m
Data from the previous 72 hours. | See also: Recent months at Melbourne Airport
Date/Time
EDT
Tmp

°C
App
Tmp
°C
Dew
Point
°C
Rel
Hum
%
Delta-T

°C
Wind Press
QNH
hPa
Press
MSL
hPa
Rain
since
9 am
mm
Dir
 
Spd
km/h
Gust
km/h
Spd
kts
Gust
kts
25/09:00pm 15.3 9.2 2.7 42 5.7 SW 24 32 13 17 1012.9 1012.5 0.0
25/08:30pm 16.2 10.0 1.9 38 6.4 SW 24 33 13 18 1012.2 1011.8 0.0
25/08:00pm 17.5 9.6 1.1 33 7.3 SSW 32 41 17 22 1011.9 1011.5 0.0
25/07:30pm 18.3 10.7 0.8 31 7.8 SSW 30 39 16 21 1011.5 1011.1 0.0
25/07:00pm 18.1 11.5 2.1 34 7.3 SW 26 33 14 18 1010.9 1010.5 0.0
25/06:30pm 18.4 11.5 2.3 34 7.4 SW 28 39 15 21 1010.6 1010.2 0.0
25/05:30pm 19.0 10.5 3.0 34 7.5 SW 37 54 20 29 1010.3 1009.9 0.0
25/05:00pm 20.1 11.4 2.0 30 8.4 SW 37 48 20 26 1009.7 1009.3 0.0
25/04:30pm 20.1 11.6 0.6 27 8.8 WSW 35 50 19 27 1009.3 1008.9 0.0
25/04:24pm 21.9 13.6 -0.4 22 10.0 WSW 33 50 18 27 1009.1 1008.8 0.0
25/04:00pm 20.7 11.4 0.3 25 9.2 SW 39 52 21 28 1009.1 1008.8 0.0
25/03:33pm 21.1 13.3 -0.8 23 9.7 SW 30 48 16 26 1008.9 1008.6 0.0
25/03:30pm 22.1 13.9 -1.1 21 10.3 SW 32 48 17 26 1008.8 1008.5 0.0
25/03:15pm 21.4 12.9 -1.8 21 10.1 WSW 33 52 18 28 1008.8 1008.5 0.0
25/02:50pm 20.9 12.7 0.3 25 9.3 WSW 33 52 18 28 1009.0 1008.7 0.0
25/02:30pm 21.5 12.5 0.0 24 9.7 W 37 48 20 26 1008.9 1008.6 0.0
25/02:18pm 20.7 12.7 0.3 25 9.2 WSW 32 50 17 27 1008.8 1008.5 0.0
25/02:00pm 20.0 11.4 0.0 26 8.9 SW 35 46 19 25 1008.7 1008.4 0.0
25/01:30pm 21.0 12.8 0.5 25 9.3 WSW 33 43 18 23 1008.7 1008.4 0.0
25/01:26pm 19.8 11.5 0.0 26 8.8 WSW 33 59 18 32 1008.8 1008.5 0.0
25/12:30pm 18.7 11.0 2.5 34 7.5 WSW 32 41 17 22 1008.9 1008.6 0.0
25/12:09pm 19.8 12.5 2.5 31 8.1 WSW 30 48 16 26 1008.8 1008.5 0.0
25/12:00pm 18.8 11.1 3.3 35 7.3 WSW 33 46 18 25 1008.8 1008.5 0.0
25/11:30am 19.2 11.9 4.3 37 7.2 WSW 32 48 17 26 1008.7 1008.4 0.0
25/11:00am 17.6 10.4 3.2 38 6.7 WSW 30 48 16 26 1008.6 1008.3 0.0
25/10:30am 18.8 11.8 4.2 38 7.0 WSW 30 39 16 21 1008.3 1008.0 0.0
25/10:00am 16.5 9.2 4.5 45 5.7 WSW 32 39 17 21 1008.3 1008.0 0.0
25/09:30am 16.1 10.5 7.3 56 4.4 WSW 26 37 14 20 1008.0 1007.7 0.0
25/09:00am 15.7 10.0 8.2 61 3.8 SW 28 33 15 18 1007.6 1007.3 0.0
25/08:30am 15.5 9.8 8.5 63 3.6 WSW 28 35 15 19 1007.3 1006.9 0.0
25/08:00am 14.9 11.2 9.5 70 2.8 WSW 19 26 10 14 1007.3 1006.9 0.0
25/07:30am 13.8 10.4 10.6 81 1.7 W 19 26 10 14 1006.7 1006.3 0.0
25/07:00am 14.0 11.6 11.4 84 1.4 WSW 15 20 8 11 1006.4 1006.0 0.0
25/06:30am 13.8 11.7 12.3 91 0.8 WSW 15 20 8 11 1006.2 1005.8 0.0
25/05:30am 14.2 8.2 12.2 88 1.1 WSW 35 48 19 26 1005.2 1004.8 0.0
25/05:13am 15.5 10.3 10.4 71 2.7 WSW 28 46 15 25 1004.5 1004.1 0.0
25/05:11am 15.5 11.5 10.4 71 2.7 WSW 22 43 12 23 1004.5 1004.1 0.0
25/05:00am 14.3 11.3 10.7 79 1.9 WNW 17 19 9 10 1004.1 1003.7 0.0
25/04:30am 13.7 11.0 10.5 81 1.7 NNW 15 15 8 8 1003.4 1003.0 0.0
25/04:00am 14.3 11.3 10.7 79 1.9 N 17 20 9 11 1003.3 1002.9 0.0
25/03:30am 14.5 12.0 11.1 80 1.8 N 15 17 8 9 1003.1 1002.7 0.0
25/03:00am 14.6 12.9 11.3 80 1.8 NNW 11 13 6 7 1003.2 1002.8 0.0
25/02:30am 15.0 13.3 11.3 78 2.0 NNW 11 15 6 8 1003.3 1002.9 0.0
25/02:00am 15.0 12.9 11.3 78 2.0 WNW 13 15 7 8 1003.8 1003.4 0.0
25/01:30am 15.0 12.5 11.1 77 2.1 WNW 15 20 8 11 1004.0 1003.6 0.0
25/01:00am 15.4 12.9 10.9 74 2.4 W 15 17 8 9 1004.1 1003.7 0.0
25/12:30am 15.7 13.2 11.1 74 2.5 W 15 17 8 9 1004.2 1003.8 0.0
 
Date/Time
EDT
Tmp

°C
App
Tmp
°C
Dew
Point
°C
Rel
Hum
%
Delta-T

°C
Wind Press
QNH
hPa
Press
MSL
hPa
Rain
since
9 am
mm
Dir
 
Spd
km/h
Gust
km/h
Spd
kts
Gust
kts
24/11:30pm 16.8 16.3 12.7 77 2.3 SSW 7 11 4 6 1004.0 1003.6 0.0
24/11:00pm 17.1 16.3 12.8 76 2.4 SSW 9 11 5 6 1004.3 1003.9 0.0
24/10:30pm 17.9 16.5 13.3 74 2.6 S 13 19 7 10 1004.4 1004.0 0.0
24/10:00pm 18.5 16.7 13.4 72 2.9 S 15 22 8 12 1004.1 1003.7 0.0
24/09:30pm 18.9 16.8 13.7 72 3.0 S 17 20 9 11 1003.9 1003.5 0.0
24/09:00pm 19.6 17.8 14.5 72 3.0 SSW 17 24 9 13 1003.6 1003.2 0.0
24/08:30pm 20.1 18.7 14.5 70 3.3 SSW 15 20 8 11 1003.0 1002.6 0.0
24/08:00pm 21.5 19.2 14.2 63 4.3 S 19 26 10 14 1002.6 1002.2 0.0
24/07:30pm 22.2 19.0 11.3 50 6.1 S 19 24 10 13 1002.3 1001.9 0.0
24/07:00pm 22.5 18.6 13.2 55 5.4 SSE 26 32 14 17 1001.9 1001.5 0.0
24/06:30pm 23.7 19.7 12.9 50 6.3 S 26 33 14 18 1001.7 1001.3 0.0
24/06:00pm 24.7 20.5 13.5 49 6.6 SSE 28 35 15 19 1001.6 1001.2 0.0
24/05:30pm 26.6 22.6 11.7 39 8.6 S 24 32 13 17 1001.3 1000.9 0.0
24/05:00pm 27.2 23.2 11.9 38 8.9 S 24 33 13 18 1001.2 1000.8 0.0
24/04:30pm 27.5 23.6 12.1 38 8.9 S 24 32 13 17 1001.3 1000.9 0.0
24/04:00pm 28.0 24.9 12.3 37 9.2 S 20 30 11 16 1001.6 1001.2 0.0
24/03:30pm 27.8 24.7 12.3 38 9.0 S 20 28 11 15 1001.9 1001.5 0.0
24/03:00pm 28.1 24.2 12.2 37 9.3 SSE 24 32 13 17 1002.4 1002.0 0.0
24/02:30pm 27.3 22.8 12.5 40 8.6 SSE 28 35 15 19 1002.5 1002.1 0.0
24/02:00pm 28.7 26.7 11.5 34 10.0 WSW 13 22 7 12 1002.9 1002.5 0.0
24/01:30pm 28.5 25.0 10.2 32 10.4 SSW 19 26 10 14 1003.3 1002.9 0.0
24/01:00pm 27.3 24.7 10.8 35 9.4 SSW 15 22 8 12 1003.7 1003.3 0.0
24/12:30pm 25.5 23.4 11.1 40 8.2 SSE 13 22 7 12 1004.1 1003.7 0.0
24/12:00pm 25.0 24.3 12.0 44 7.5 ESE 7 17 4 9 1004.4 1004.0 0.0
24/11:30am 23.6 22.0 11.6 47 6.8 SSW 11 15 6 8 1005.0 1004.6 0.0
24/11:00am 22.5 21.5 12.2 52 5.9 NE 9 15 5 8 1005.4 1005.0 0.0
24/10:30am 21.1 20.2 12.5 58 4.9 NNE 9 15 5 8 1005.8 1005.4 0.0
24/10:00am 19.6 19.1 12.1 62 4.2 NNW 6 9 3 5 1006.1 1005.7 0.0
24/09:30am 19.3 19.3 12.4 64 3.9 NNW 4 9 2 5 1006.3 1005.9 0.0
24/09:00am 18.3 17.9 12.4 68 3.3 N 6 11 3 6 1006.6 1006.2 0.0
24/08:30am 17.1 16.6 12.2 73 2.7 WNW 6 11 3 6 1006.3 1005.9 0.0
24/08:00am 16.4 15.3 11.8 74 2.5 NW 9 11 5 6 1006.1 1005.7 0.0
24/07:30am 14.6 13.7 11.5 82 1.7 NNW 7 9 4 5 1006.0 1005.6 0.0
24/07:00am 13.3 11.6 11.2 87 1.1 N 11 13 6 7 1005.8 1005.4 0.0
24/06:30am 12.3 10.1 10.8 90 0.8 N 13 15 7 8 1006.0 1005.6 0.0
24/06:00am 12.0 9.8 10.7 92 0.7 N 13 15 7 8 1006.0 1005.6 0.0
24/05:30am 12.7 11.3 11.0 89 0.9 NW 9 11 5 6 1006.0 1005.6 0.0
24/05:00am 12.5 11.4 10.6 88 1.0 NW 7 9 4 5 1006.1 1005.7 0.0
24/04:30am 12.9 11.9 11.0 88 1.0 NNW 7 9 4 5 1006.0 1005.6 0.0
24/04:00am 13.0 11.6 10.9 87 1.1 NW 9 9 5 5 1006.3 1005.9 0.0
24/03:30am 12.9 11.6 11.2 89 0.9 WNW 9 11 5 6 1006.6 1006.2 0.0
24/03:00am 13.3 12.0 11.2 87 1.1 WNW 9 11 5 6 1006.7 1006.3 0.0
24/02:30am 14.0 13.4 11.6 85 1.3 WSW 6 7 3 4 1007.0 1006.6 0.0
24/02:00am 13.9 13.1 11.7 86 1.2 SSW 7 9 4 5 1007.4 1007.0 0.0
24/01:30am 14.4 13.6 11.8 84 1.4 SSW 7 9 4 5 1007.9 1007.6 0.0
24/01:00am 14.7 13.6 11.8 83 1.6 S 9 11 5 6 1008.2 1007.9 0.0
24/12:30am 14.9 13.3 11.6 80 1.8 S 11 13 6 7 1008.3 1008.0 0.0
24/12:00am 15.7 14.1 11.7 77 2.2 S 11 13 6 7 1008.5 1008.2 0.0
 
Date/Time
EDT
Tmp

°C
App
Tmp
°C
Dew
Point
°C
Rel
Hum
%
Delta-T

°C
Wind Press
QNH
hPa
Press
MSL
hPa
Rain
since
9 am
mm
Dir
 
Spd
km/h
Gust
km/h
Spd
kts
Gust
kts
23/11:30pm 16.3 14.3 11.5 73 2.6 S 13 17 7 9 1008.7 1008.4 0.0
23/11:00pm 16.9 13.6 10.8 67 3.3 SSE 19 24 10 13 1008.9 1008.6 0.0
23/10:30pm 17.2 13.8 10.7 65 3.5 SE 19 26 10 14 1008.9 1008.6 0.0
23/10:00pm 17.5 13.5 10.6 64 3.7 SSE 22 28 12 15 1009.1 1008.8 0.0
23/09:30pm 18.0 13.3 10.8 63 3.9 SSE 26 32 14 17 1009.0 1008.7 0.0
23/09:00pm 18.2 13.9 11.9 66 3.5 S 26 37 14 20 1008.9 1008.6 0.0
23/08:30pm 18.5 13.3 11.6 64 3.8 S 30 37 16 20 1008.7 1008.4 0.0
23/08:00pm 18.8 13.2 11.6 63 4.0 S 32 39 17 21 1008.6 1008.3 0.0
23/07:30pm 19.1 13.6 11.9 63 4.0 S 32 39 17 21 1008.1 1007.8 0.0
23/07:00pm 20.3 15.1 11.5 57 4.9 S 30 37 16 20 1007.7 1007.4 0.0
23/06:30pm 20.7 15.4 12.4 59 4.7 S 32 39 17 21 1007.4 1007.0 0.0
23/06:00pm 21.2 16.4 13.0 59 4.7 S 30 37 16 20 1007.1 1006.7 0.0
23/05:30pm 22.6 18.0 13.5 56 5.3 S 30 35 16 19 1006.9 1006.5 0.0
23/05:00pm 23.0 19.2 13.6 55 5.5 S 26 35 14 19 1006.7 1006.3 0.0
23/04:30pm 23.0 19.4 13.0 53 5.8 S 24 33 13 18 1006.6 1006.2 0.0
23/04:00pm 22.6 18.1 13.7 57 5.2 S 30 39 16 21 1006.6 1006.2 0.0
23/03:30pm 23.6 19.3 14.5 56 5.4 S 30 37 16 20 1006.5 1006.1 0.0
23/03:00pm 24.6 20.2 14.2 52 6.2 SSE 30 41 16 22 1006.3 1005.9 0.0
23/02:30pm 24.2 20.0 14.7 55 5.7 SSE 30 37 16 20 1006.2 1005.8 0.0
23/02:00pm 25.4 21.2 13.4 47 7.1 SSE 28 35 15 19 1006.3 1005.9 0.0
23/01:30pm 25.8 22.0 11.2 40 8.3 SSE 22 33 12 18 1006.6 1006.2 0.0
23/01:00pm 25.9 21.6 10.7 38 8.6 SSE 24 37 13 20 1006.6 1006.2 0.0
23/12:30pm 26.0 19.9 6.7 29 10.2 S 28 35 15 19 1006.5 1006.1 0.0
23/12:00pm 26.3 21.2 6.0 27 10.6 SSW 22 32 12 17 1006.5 1006.1 0.0
23/11:30am 25.2 19.6 5.3 27 10.2 SSW 24 32 13 17 1006.4 1006.0 0.0
23/11:00am 27.1 21.9 5.6 25 11.2 S 22 32 12 17 1006.3 1005.9 0.0
23/10:30am 26.4 22.7 10.0 35 9.2 SSW 20 28 11 15 1006.2 1005.8 0.0
23/10:00am 25.7 23.1 13.1 45 7.4 S 19 30 10 16 1006.1 1005.7 0.0
23/09:30am 24.9 23.6 14.8 53 6.1 SSW 15 22 8 12 1005.8 1005.4 0.0
23/09:00am 24.1 23.6 14.8 56 5.6 S 11 15 6 8 1005.8 1005.4 0.0
23/08:30am 23.6 23.5 14.9 58 5.2 S 9 15 5 8 1005.7 1005.3 0.0
23/08:00am 22.3 22.6 15.1 63 4.3 S 7 9 4 5 1005.3 1004.9 0.0
23/07:30am 21.6 22.1 15.1 66 3.9 SSW 6 7 3 4 1005.1 1004.7 0.0
23/07:00am 22.0 21.4 14.6 63 4.4 S 11 13 6 7 1004.9 1004.5 0.0
23/06:30am 22.3 22.1 14.6 61 4.6 W 9 13 5 7 1004.2 1003.8 0.0
23/06:00am 24.8 21.6 14.3 52 6.3 N 24 30 13 16 1003.1 1002.7 0.0
23/05:30am 23.5 21.4 14.6 57 5.3 N 19 28 10 15 1003.0 1002.6 0.0
23/05:00am 20.6 19.8 15.2 71 3.2 WNW 13 15 7 8 1003.1 1002.7 0.0
23/04:30am 20.7 19.7 15.7 73 3.0 N 15 19 8 10 1003.2 1002.8 0.0
23/04:00am 20.2 20.0 15.7 75 2.7 WNW 11 13 6 7 1003.7 1003.3 0.0
23/03:30am 18.9 18.8 16.1 84 1.7 WSW 11 15 6 8 1003.8 1003.4 0.0
23/03:00am 20.8 22.0 16.0 74 2.9 N 4 13 2 7 1003.7 1003.3 0.0
23/02:30am 20.2 21.0 16.4 79 2.3 WNW 7 9 4 5 1004.3 1003.9 0.0
23/02:00am 20.4 20.8 16.3 77 2.5 N 9 11 5 6 1004.7 1004.3 0.0
23/01:30am 20.0 22.2 16.4 80 2.2 CALM 0 0 0 0 1005.3 1004.9 0.0
23/01:00am 20.0 21.0 16.4 80 2.2 NW 6 9 3 5 1005.9 1005.5 0.0
23/12:30am 20.1 20.5 16.3 79 2.3 N 9 11 5 6 1006.2 1005.8 0.0
23/12:00am 19.9 20.3 16.3 80 2.2 N 9 11 5 6 1006.6 1006.2 0.0
 
Date/Time
EDT
Tmp

°C
App
Tmp
°C
Dew
Point
°C
Rel
Hum
%
Delta-T

°C
Wind Press
QNH
hPa
Press
MSL
hPa
Rain
since
9 am
mm
Dir
 
Spd
km/h
Gust
km/h
Spd
kts
Gust
kts
22/11:30pm 19.6 20.4 16.3 81 2.0 NNW 7 11 4 6 1007.0 1006.6 0.0
22/11:00pm 19.6 21.7 16.3 81 2.0 CALM 0 0 0 0 1007.3 1006.9 0.0
22/10:30pm 19.5 21.7 16.4 82 1.9 CALM 0 0 0 0 1008.0 1007.7 0.0
22/10:00pm 19.2 21.4 16.6 85 1.6 CALM 0 0 0 0 1008.3 1008.0 0.0
22/09:30pm 19.1 19.2 16.5 85 1.6 SW 11 13 6 7 1008.6 1008.3 0.0

Latest Capital City Observations: Canberra | Sydney | Melbourne | Brisbane | Adelaide | Perth | Hobart | Darwin

Other Formats:

Comma delimited format used in spreadsheet applications
http://www.bom.gov.au/fwo/IDV60901/IDV60901.94866.axf

JavaScript Object Notation format (JSON) in row-major order
http://www.bom.gov.au/fwo/IDV60901/IDV60901.94866.json